Time;durP1;ratioP1;P1;durP2;ratioP2;P2;SDS_P1;SDS_P2;PMS_P1;PMS_P2;Temp;Humidity;BMP_temperature;BMP_pressure;BME280_temperature;BME280_humidity;BME280_pressure;Samples;Min_cycle;Max_cycle;Signal;HPM_P1;HPM_P2
2021/11/19 00:00:36;;;;;;;;;;;;;;;;;;7331551;19;153962;-15
2021/11/19 00:03:08;;;;;;;9.98;9.07;;;;;;;;;;7337544;19;153434;-15
2021/11/19 00:05:43;;;;;;;10.18;8.98;;;;;;;;;;7335433;19;161986;-15
2021/11/19 00:08:15;;;;;;;10.43;9.32;;;;;;;;;;7332470;19;162592;-15
2021/11/19 00:10:47;;;;;;;9.52;8.65;;;;;;;;;;7337170;19;154014;-15
2021/11/19 00:13:18;;;;;;;9.17;8.37;;;;;;;;;;7331750;19;153512;-16
2021/11/19 00:15:52;;;;;;;10.93;9.57;;;;;;;;;;7332447;19;161996;-16
2021/11/19 00:18:23;;;;;;;9.85;8.85;;;;;;;;;;7333518;19;162480;-14
2021/11/19 00:20:57;;;;;;;8.65;7.95;;;;;;;;;;7330330;19;154222;-16
2021/11/19 00:23:29;;;;;;;9.23;8.45;;;;;;;;;;7335250;19;153825;-17
2021/11/19 00:26:00;;;;;;;9.65;8.85;;;;;;;;;;7332364;19;162114;-14
2021/11/19 00:28:32;;;;;;;9.05;8.25;;;;;;;;;;7332182;19;162512;-15
2021/11/19 09:52:05;;;;;;;1.58;0.70;;;;;;;;;;7368058;19;132897;-15
2021/11/19 09:55:25;;;;;;;1.52;0.85;;;;;;;;;;7363270;19;153544;-13
2021/11/19 09:58:34;;;;;;;1.10;0.50;;;;;;;;;;7361723;19;162169;-13
2021/11/19 10:01:35;;;;;;;0.60;0.60;;;;;;;;;;7364574;19;162535;-15
2021/11/19 10:04:35;;;;;;;1.58;0.63;;;;;;;;;;7366799;19;153917;-14
2021/11/19 10:07:20;;;;;;;0.50;0.50;;;;;;;;;;7368059;19;153707;-13
2021/11/19 10:10:07;;;;;;;0.82;0.50;;;;;;;;;;7366821;19;162503;-13
2021/11/19 10:12:45;;;;;;;0.57;0.57;;;;;;;;;;7364980;19;162628;-14
2021/11/19 10:15:21;;;;;;;0.52;0.52;;;;;;;;;;7368373;19;153962;-14
2021/11/19 10:18:02;;;;;;;0.50;0.50;;;;;;;;;;7369596;19;153526;-14
2021/11/19 10:20:44;;;;;;;0.50;0.50;;;;;;;;;;7359955;19;162061;-13
2021/11/19 10:23:25;;;;;;;0.60;0.60;;;;;;;;;;7361677;19;162420;-13
2021/11/19 10:26:04;;;;;;;1.30;0.80;;;;;;;;;;7364464;19;153936;-15
2021/11/19 10:28:39;;;;;;;0.80;0.80;;;;;;;;;;7364808;19;153545;-15
2021/11/19 10:31:13;;;;;;;0.68;0.68;;;;;;;;;;7363247;19;162230;-19
2021/11/19 10:33:49;;;;;;;0.63;0.60;;;;;;;;;;7364169;19;162325;-14
2021/11/19 10:36:30;;;;;;;0.60;0.60;;;;;;;;;;7364453;19;153912;-13
2021/11/19 10:39:40;;;;;;;0.93;0.57;;;;;;;;;;7364341;19;153545;-14
2021/11/19 10:42:29;;;;;;;0.77;0.77;;;;;;;;;;7361867;19;162046;-13
2021/11/19 10:45:26;;;;;;;0.60;0.60;;;;;;;;;;7363713;19;162447;-14
2021/11/19 10:48:31;;;;;;;0.70;0.70;;;;;;;;;;7362952;19;154050;-14
2021/11/19 10:51:50;;;;;;;0.50;0.50;;;;;;;;;;7349746;19;153525;-13
2021/11/19 10:54:55;;;;;;;0.65;0.65;;;;;;;;;;7334452;19;161758;-14
2021/11/19 10:57:51;;;;;;;0.60;0.60;;;;;;;;;;7333582;19;162377;-12
2021/11/19 11:00:35;;;;;;;0.60;0.60;;;;;;;;;;7332826;19;154154;-13
2021/11/19 11:03:12;;;;;;;0.50;0.50;;;;;;;;;;7333620;19;153584;-13
2021/11/19 11:05:46;;;;;;;0.60;0.60;;;;;;;;;;7333083;19;161881;-15
2021/11/19 11:08:25;;;;;;;0.57;0.57;;;;;;;;;;7334113;19;162431;-13
2021/11/19 11:10:59;;;;;;;1.05;0.57;;;;;;;;;;7333445;19;154015;-13
2021/11/19 11:13:37;;;;;;;0.50;0.50;;;;;;;;;;7334547;19;153519;-13
2021/11/19 11:16:12;;;;;;;0.57;0.57;;;;;;;;;;7333936;19;162084;-12
2021/11/19 11:18:58;;;;;;;0.70;0.70;;;;;;;;;;7333674;19;162457;-13
2021/11/19 11:21:34;;;;;;;0.50;0.50;;;;;;;;;;7332169;19;154015;-15
2021/11/19 11:24:14;;;;;;;0.50;0.50;;;;;;;;;;7334137;19;153519;-14
2021/11/19 11:26:48;;;;;;;1.05;0.70;;;;;;;;;;7335019;19;161968;-13
2021/11/19 11:29:47;;;;;;;1.10;0.70;;;;;;;;;;7333598;19;162440;-13
2021/11/19 11:32:28;;;;;;;0.65;0.50;;;;;;;;;;7337671;19;153919;-14
2021/11/19 11:35:18;;;;;;;0.93;0.68;;;;;;;;;;7335067;19;153539;-14
2021/11/19 11:37:59;;;;;;;0.57;0.57;;;;;;;;;;7336343;19;161785;-12
2021/11/19 11:40:38;;;;;;;0.80;0.60;;;;;;;;;;7331355;19;162761;-12
2021/11/19 11:43:22;;;;;;;0.63;0.50;;;;;;;;;;7333620;19;153916;-12
2021/11/19 11:45:59;;;;;;;0.82;0.60;;;;;;;;;;7332905;19;153536;-12
2021/11/19 11:48:40;;;;;;;0.50;0.50;;;;;;;;;;7333120;19;161780;-12
2021/11/19 11:51:14;;;;;;;0.52;0.52;;;;;;;;;;7329528;19;162546;-13
2021/11/19 11:54:04;;;;;;;0.73;0.57;;;;;;;;;;7334558;19;154055;-13
2021/11/19 11:56:40;;;;;;;0.88;0.80;;;;;;;;;;7336688;19;153506;-12
2021/11/19 11:59:18;;;;;;;0.50;0.50;;;;;;;;;;7332648;19;162254;-13
2021/11/19 12:01:57;;;;;;;0.63;0.63;;;;;;;;;;7330681;19;162328;-13
2021/11/19 12:04:42;;;;;;;0.57;0.57;;;;;;;;;;7333116;19;153709;-12
2021/11/19 12:07:25;;;;;;;0.60;0.60;;;;;;;;;;7332834;19;153542;-13
2021/11/19 12:10:07;;;;;;;1.00;0.60;;;;;;;;;;7332160;19;161798;-13
2021/11/19 12:12:43;;;;;;;1.00;0.70;;;;;;;;;;7332281;19;162559;-14
2021/11/19 12:15:25;;;;;;;0.43;0.43;;;;;;;;;;7332818;19;154009;-12
2021/11/19 12:18:08;;;;;;;0.52;0.40;;;;;;;;;;7332613;19;153538;-14
2021/11/19 12:20:57;;;;;;;0.55;0.55;;;;;;;;;;7331640;19;161874;-16
2021/11/19 12:23:40;;;;;;;0.50;0.50;;;;;;;;;;7330875;19;162350;-13
2021/11/19 12:26:46;;;;;;;0.85;0.82;;;;;;;;;;7332453;19;153927;-14
2021/11/19 12:29:27;;;;;;;2.15;0.80;;;;;;;;;;7332198;19;153781;-13
2021/11/19 12:32:11;;;;;;;1.13;0.70;;;;;;;;;;7334269;19;161802;-12
2021/11/19 12:34:50;;;;;;;1.25;0.70;;;;;;;;;;7331535;19;162427;-13
2021/11/19 12:37:47;;;;;;;1.50;0.60;;;;;;;;;;7334897;19;154048;-14
2021/11/19 12:40:25;;;;;;;1.02;0.60;;;;;;;;;;7334639;19;153487;-14
2021/11/19 12:43:01;;;;;;;0.50;0.50;;;;;;;;;;7331920;19;161944;-15
2021/11/19 12:45:36;;;;;;;1.05;0.70;;;;;;;;;;7334690;19;162615;-14
2021/11/19 12:48:34;;;;;;;1.48;0.63;;;;;;;;;;7335386;19;153985;-15
2021/11/19 12:51:20;;;;;;;1.20;0.70;;;;;;;;;;7332587;19;153664;-14
2021/11/19 12:54:04;;;;;;;1.48;0.77;;;;;;;;;;7333674;19;161892;-14
2021/11/19 12:57:01;;;;;;;0.40;0.40;;;;;;;;;;7333214;19;162416;-14
2021/11/19 12:59:51;;;;;;;0.60;0.60;;;;;;;;;;7332543;19;153922;-14
2021/11/19 13:02:36;;;;;;;1.67;0.43;;;;;;;;;;7332842;19;153580;-15
2021/11/19 13:05:24;;;;;;;0.60;0.60;;;;;;;;;;7330848;19;161967;-15
2021/11/19 13:08:03;;;;;;;0.60;0.60;;;;;;;;;;7329346;19;162448;-14
2021/11/19 13:10:50;;;;;;;0.40;0.40;;;;;;;;;;7334000;19;153959;-13
2021/11/19 13:13:34;;;;;;;0.80;0.80;;;;;;;;;;7330569;19;153716;-14
2021/11/19 13:16:30;;;;;;;0.88;0.70;;;;;;;;;;7333622;19;161778;-14
2021/11/19 13:19:04;;;;;;;1.23;0.90;;;;;;;;;;7334538;19;162411;-13
2021/11/19 13:21:50;;;;;;;1.02;0.73;;;;;;;;;;7329683;19;154281;-14
2021/11/19 13:24:53;;;;;;;0.52;0.52;;;;;;;;;;7329244;19;153693;-13
2021/11/19 13:27:42;;;;;;;1.00;0.70;;;;;;;;;;7330020;19;162157;-13
2021/11/19 13:30:43;;;;;;;0.80;0.63;;;;;;;;;;7332609;19;162579;-11
2021/11/19 13:33:21;;;;;;;0.55;0.45;;;;;;;;;;7331028;19;154041;-14
2021/11/19 13:36:08;;;;;;;0.60;0.60;;;;;;;;;;7333257;19;153535;-13
2021/11/19 13:39:17;;;;;;;1.05;0.75;;;;;;;;;;7327918;19;161801;-14
2021/11/19 13:42:39;;;;;;;0.50;0.50;;;;;;;;;;7327833;19;162688;-14
2021/11/19 13:45:57;;;;;;;0.98;0.70;;;;;;;;;;7329555;19;154085;-15
2021/11/19 13:49:04;;;;;;;1.27;0.55;;;;;;;;;;7329677;19;153535;-15
2021/11/19 13:51:52;;;;;;;0.50;0.50;;;;;;;;;;7326793;19;161768;-13
2021/11/19 13:54:29;;;;;;;1.10;0.70;;;;;;;;;;7332149;19;162516;-13
2021/11/19 13:57:10;;;;;;;0.55;0.55;;;;;;;;;;7329393;19;154046;-14
2021/11/19 13:59:49;;;;;;;1.23;0.57;;;;;;;;;;7329258;19;153767;-13
2021/11/19 14:02:29;;;;;;;1.02;0.63;;;;;;;;;;7327418;19;161836;-13
2021/11/19 14:05:06;;;;;;;0.50;0.50;;;;;;;;;;7328349;19;162154;-14
2021/11/19 14:07:49;;;;;;;0.50;0.50;;;;;;;;;;7330714;19;153907;-14
2021/11/19 14:10:24;;;;;;;;;;;;;;;;;;7329506;19;153526;-14
2021/11/19 14:12:59;;;;;;;0.70;0.70;;;;;;;;;;7328822;19;162229;-14
2021/11/19 14:15:33;;;;;;;0.45;0.45;;;;;;;;;;7328418;19;162585;-14
2021/11/19 14:18:23;;;;;;;0.50;0.50;;;;;;;;;;7330674;19;154001;-13
2021/11/19 14:24:01;;;;;;;1.05;0.70;;;;;;;;;;7325564;19;161870;-13
2021/11/19 14:26:36;;;;;;;0.55;0.55;;;;;;;;;;7333359;19;162400;-13
2021/11/19 14:29:11;;;;;;;0.50;0.50;;;;;;;;;;7333926;19;153976;-14
2021/11/19 14:31:47;;;;;;;0.88;0.80;;;;;;;;;;7338880;19;153601;-14
2021/11/19 14:34:20;;;;;;;2.10;1.05;;;;;;;;;;7334786;19;161873;-13
2021/11/19 14:36:58;;;;;;;1.13;0.70;;;;;;;;;;7334541;19;162529;-14
2021/11/19 14:39:36;;;;;;;0.70;0.50;;;;;;;;;;7334888;19;154048;-13
2021/11/19 14:42:11;;;;;;;0.98;0.63;;;;;;;;;;7334596;19;153472;-12
2021/11/19 14:44:47;;;;;;;0.80;0.60;;;;;;;;;;7334440;19;162147;-14
2021/11/19 14:47:24;;;;;;;0.88;0.88;;;;;;;;;;7337458;19;162342;-13
2021/11/19 14:50:02;;;;;;;0.70;0.70;;;;;;;;;;7333919;19;154128;-13
2021/11/19 14:52:51;;;;;;;0.70;0.70;;;;;;;;;;7334575;19;153617;-13
2021/11/19 14:55:29;;;;;;;0.50;0.50;;;;;;;;;;7334442;19;161589;-14
2021/11/19 14:58:06;;;;;;;0.90;0.85;;;;;;;;;;7335997;19;162401;-14
2021/11/19 15:00:43;;;;;;;1.13;0.70;;;;;;;;;;7339052;19;154029;-11
2021/11/19 15:03:18;;;;;;;0.73;0.57;;;;;;;;;;7332813;19;153743;-13
2021/11/19 15:05:57;;;;;;;0.68;0.60;;;;;;;;;;7333929;19;161822;-13
2021/11/19 15:08:36;;;;;;;0.50;0.50;;;;;;;;;;7337257;19;162543;-13
2021/11/19 15:11:22;;;;;;;0.60;0.60;;;;;;;;;;7335895;19;154114;-12
2021/11/19 15:14:07;;;;;;;0.50;0.50;;;;;;;;;;7338593;19;153762;-12
2021/11/19 15:16:41;;;;;;;0.50;0.50;;;;;;;;;;7332790;19;162420;-14
2021/11/19 15:19:38;;;;;;;0.40;0.40;;;;;;;;;;7331378;19;162393;-13
2021/11/19 15:22:12;;;;;;;0.40;0.40;;;;;;;;;;7333843;19;154007;-15
2021/11/19 15:24:49;;;;;;;0.40;0.40;;;;;;;;;;7332988;19;153505;-20
2021/11/19 15:27:39;;;;;;;0.50;0.50;;;;;;;;;;7332610;19;161844;-13
2021/11/19 15:30:29;;;;;;;0.40;0.40;;;;;;;;;;7333813;19;162501;-23
2021/11/19 15:33:13;;;;;;;0.63;0.50;;;;;;;;;;7334408;19;153995;-13
2021/11/19 15:36:00;;;;;;;0.50;0.50;;;;;;;;;;7334185;19;153794;-14
2021/11/19 15:38:41;;;;;;;0.40;0.40;;;;;;;;;;7334189;19;161803;-15
2021/11/19 15:41:18;;;;;;;0.40;0.40;;;;;;;;;;7333426;19;162564;-15
2021/11/19 15:43:54;;;;;;;0.30;0.30;;;;;;;;;;7332194;19;153961;-14
2021/11/19 15:46:28;;;;;;;0.55;0.55;;;;;;;;;;7333711;19;153730;-13
2021/11/19 15:49:03;;;;;;;0.40;0.40;;;;;;;;;;7333020;19;161547;-15
2021/11/19 15:51:37;;;;;;;0.35;0.35;;;;;;;;;;7330704;19;162375;-14
2021/11/19 15:54:16;;;;;;;0.45;0.45;;;;;;;;;;7333152;19;154148;-14
2021/11/19 15:57:06;;;;;;;0.45;0.45;;;;;;;;;;7331855;19;153774;-13
2021/11/19 15:59:47;;;;;;;1.63;0.50;;;;;;;;;;7331541;19;162125;-13
2021/11/19 16:02:32;;;;;;;0.57;0.40;;;;;;;;;;7332711;19;162499;-12
2021/11/19 16:05:34;;;;;;;0.40;0.40;;;;;;;;;;7330625;19;155216;-13
2021/11/19 16:08:13;;;;;;;0.60;0.60;;;;;;;;;;7333118;19;153713;-14
2021/11/19 16:11:01;;;;;;;0.93;0.40;;;;;;;;;;7333805;19;161919;-13
2021/11/19 16:13:38;;;;;;;0.40;0.40;;;;;;;;;;7332382;19;162944;-12
2021/11/19 16:16:12;;;;;;;0.40;0.40;;;;;;;;;;7332676;19;154224;-13
2021/11/19 16:18:46;;;;;;;0.30;0.30;;;;;;;;;;7335252;19;153643;-12
2021/11/19 16:21:19;;;;;;;0.60;0.50;;;;;;;;;;7333509;19;161856;-12
2021/11/19 16:23:51;;;;;;;0.40;0.40;;;;;;;;;;7334527;19;162721;-14
2021/11/19 16:26:26;;;;;;;0.40;0.40;;;;;;;;;;7332337;19;154215;-14
2021/11/19 16:29:00;;;;;;;0.30;0.30;;;;;;;;;;7335946;19;153506;-13
2021/11/19 16:31:32;;;;;;;0.40;0.40;;;;;;;;;;7331680;19;161941;-12
2021/11/19 16:34:03;;;;;;;0.40;0.40;;;;;;;;;;7331479;19;162398;-13
2021/11/19 16:36:35;;;;;;;0.45;0.43;;;;;;;;;;7327796;19;154091;-11
2021/11/19 16:39:09;;;;;;;0.50;0.50;;;;;;;;;;7331759;19;153907;-14
2021/11/19 16:41:41;;;;;;;0.30;0.30;;;;;;;;;;7330281;19;161781;-14
2021/11/19 16:44:15;;;;;;;0.40;0.40;;;;;;;;;;7330112;19;162379;-14
2021/11/19 16:46:47;;;;;;;0.30;0.30;;;;;;;;;;7331644;19;154014;-13
2021/11/19 16:49:21;;;;;;;0.50;0.50;;;;;;;;;;7329976;19;153700;-14
2021/11/19 16:51:57;;;;;;;0.50;0.50;;;;;;;;;;7331369;19;161853;-13
2021/11/19 16:54:28;;;;;;;0.40;0.40;;;;;;;;;;7331355;19;162548;-14
2021/11/19 16:57:04;;;;;;;0.40;0.40;;;;;;;;;;7331674;19;154450;-13
2021/11/19 16:59:39;;;;;;;0.40;0.40;;;;;;;;;;7331377;19;153647;-13
2021/11/19 17:02:11;;;;;;;0.38;0.38;;;;;;;;;;7330915;19;161908;-14
2021/11/19 17:04:43;;;;;;;0.30;0.30;;;;;;;;;;7329034;19;162330;-14
2021/11/19 17:07:16;;;;;;;0.30;0.30;;;;;;;;;;7331090;19;154059;-14
2021/11/19 17:09:48;;;;;;;0.20;0.20;;;;;;;;;;7331168;19;153562;-13
2021/11/19 17:12:19;;;;;;;0.38;0.38;;;;;;;;;;7330871;19;161806;-12
2021/11/19 17:14:53;;;;;;;0.40;0.40;;;;;;;;;;7330604;19;162359;-13
2021/11/19 17:17:24;;;;;;;0.90;0.47;;;;;;;;;;7330709;19;154098;-14
2021/11/19 17:19:55;;;;;;;0.43;0.43;;;;;;;;;;7330549;19;153485;-15
2021/11/19 17:22:27;;;;;;;0.40;0.40;;;;;;;;;;7328559;19;162622;-13
2021/11/19 17:24:58;;;;;;;0.40;0.40;;;;;;;;;;7328287;19;162351;-13
2021/11/19 17:27:29;;;;;;;0.30;0.30;;;;;;;;;;7330275;19;154249;-14
2021/11/19 17:30:05;;;;;;;0.40;0.40;;;;;;;;;;7328796;19;153504;-14
2021/11/19 17:32:37;;;;;;;0.40;0.40;;;;;;;;;;7329589;19;161759;-14
2021/11/19 17:35:10;;;;;;;0.30;0.30;;;;;;;;;;7328978;19;162537;-14
2021/11/19 17:37:41;;;;;;;0.40;0.40;;;;;;;;;;7329772;19;154008;-14
2021/11/19 17:40:21;;;;;;;0.40;0.40;;;;;;;;;;7329657;19;153514;-12
2021/11/19 17:42:54;;;;;;;0.40;0.40;;;;;;;;;;7329611;19;161969;-13
2021/11/19 17:45:36;;;;;;;0.50;0.50;;;;;;;;;;7327603;19;162584;-14
2021/11/19 17:48:10;;;;;;;0.50;0.50;;;;;;;;;;7329454;19;153977;-14
2021/11/19 17:50:42;;;;;;;0.40;0.40;;;;;;;;;;7327836;19;153530;-14
2021/11/19 17:53:16;;;;;;;0.40;0.40;;;;;;;;;;7328846;19;162014;-14
2021/11/19 17:55:50;;;;;;;0.45;0.45;;;;;;;;;;7328386;19;162630;-16
2021/11/19 17:58:22;;;;;;;0.40;0.40;;;;;;;;;;7328727;19;154057;-13
2021/11/19 18:00:59;;;;;;;0.35;0.35;;;;;;;;;;7329334;19;153635;-14
2021/11/19 18:03:30;;;;;;;0.40;0.40;;;;;;;;;;7335323;19;162081;-12
2021/11/19 18:06:03;;;;;;;0.40;0.40;;;;;;;;;;7333865;19;162317;-14
2021/11/19 18:08:37;;;;;;;0.40;0.40;;;;;;;;;;7335853;19;153991;-13
2021/11/19 18:11:11;;;;;;;0.47;0.47;;;;;;;;;;7335394;19;153780;-13
2021/11/19 18:13:44;;;;;;;0.40;0.40;;;;;;;;;;7334718;19;161945;-13
2021/11/19 18:16:20;;;;;;;0.40;0.40;;;;;;;;;;7334911;19;162527;-15
2021/11/19 18:18:52;;;;;;;0.40;0.40;;;;;;;;;;7335036;19;153982;-14
2021/11/19 18:21:26;;;;;;;0.50;0.50;;;;;;;;;;7334979;19;153693;-12
2021/11/19 18:23:57;;;;;;;0.47;0.47;;;;;;;;;;7333111;19;161961;-11
2021/11/19 18:26:30;;;;;;;0.40;0.40;;;;;;;;;;7332630;19;163596;-13
2021/11/19 18:29:04;;;;;;;0.30;0.30;;;;;;;;;;7334564;19;154115;-13
2021/11/19 18:31:41;;;;;;;0.43;0.43;;;;;;;;;;7334890;19;153652;-14
2021/11/19 18:34:13;;;;;;;0.40;0.40;;;;;;;;;;7334251;19;161966;-13
2021/11/19 18:36:50;;;;;;;0.40;0.40;;;;;;;;;;7334167;19;162578;-13
2021/11/19 18:39:25;;;;;;;0.50;0.50;;;;;;;;;;7334395;19;154038;-14
2021/11/19 18:41:59;;;;;;;0.45;0.45;;;;;;;;;;7334056;19;153679;-13
2021/11/19 18:44:30;;;;;;;0.50;0.50;;;;;;;;;;7333647;19;161700;-15
2021/11/19 18:47:05;;;;;;;0.30;0.30;;;;;;;;;;7331306;19;162389;-15
2021/11/19 18:49:37;;;;;;;0.50;0.50;;;;;;;;;;7333835;19;154136;-13
2021/11/19 18:52:11;;;;;;;0.50;0.50;;;;;;;;;;7333888;19;153516;-14
2021/11/19 18:54:45;;;;;;;0.50;0.50;;;;;;;;;;7333283;19;161885;-14
2021/11/19 18:57:20;;;;;;;0.50;0.50;;;;;;;;;;7333540;19;162652;-13
2021/11/19 18:59:53;;;;;;;0.50;0.50;;;;;;;;;;7334213;19;153993;-14
2021/11/19 19:02:30;;;;;;;0.55;0.55;;;;;;;;;;7333684;19;153547;-12
2021/11/19 19:05:02;;;;;;;0.50;0.50;;;;;;;;;;7333351;19;161993;-13
2021/11/19 19:07:33;;;;;;;0.50;0.50;;;;;;;;;;7333546;19;162716;-14
2021/11/19 19:10:08;;;;;;;0.60;0.60;;;;;;;;;;7332253;19;154035;-15
2021/11/19 19:12:39;;;;;;;0.40;0.40;;;;;;;;;;7332448;19;153519;-13
2021/11/19 19:15:13;;;;;;;0.50;0.50;;;;;;;;;;7331718;19;161899;-15
2021/11/19 19:17:50;;;;;;;0.60;0.60;;;;;;;;;;7333053;19;162630;-15
2021/11/19 19:20:26;;;;;;;0.50;0.50;;;;;;;;;;7333403;19;154284;-14
2021/11/19 19:22:58;;;;;;;0.65;0.65;;;;;;;;;;7333268;19;153688;-15
2021/11/19 19:25:30;;;;;;;0.50;0.50;;;;;;;;;;7332184;19;161788;-13
2021/11/19 19:28:04;;;;;;;0.55;0.55;;;;;;;;;;7332743;19;162567;-12
2021/11/19 19:30:39;;;;;;;0.60;0.60;;;;;;;;;;7332822;19;154021;-13
2021/11/19 19:33:13;;;;;;;0.60;0.60;;;;;;;;;;7332570;19;153606;-13
2021/11/19 19:35:51;;;;;;;0.55;0.55;;;;;;;;;;7332463;19;162023;-13
2021/11/19 19:38:30;;;;;;;0.50;0.50;;;;;;;;;;7332175;19;162634;-13
2021/11/19 19:41:07;;;;;;;0.60;0.60;;;;;;;;;;7332585;19;154001;-12
2021/11/19 19:43:39;;;;;;;0.50;0.50;;;;;;;;;;7332565;19;154035;-13
2021/11/19 19:46:12;;;;;;;0.47;0.47;;;;;;;;;;7331190;19;161766;-15
2021/11/19 19:48:47;;;;;;;0.50;0.50;;;;;;;;;;7330917;19;162679;-14
2021/11/19 19:51:21;;;;;;;0.60;0.60;;;;;;;;;;7330212;19;153969;-13
2021/11/19 19:53:55;;;;;;;0.57;0.57;;;;;;;;;;7331257;19;153538;-13
2021/11/19 19:56:28;;;;;;;0.47;0.47;;;;;;;;;;7330633;19;161902;-13
2021/11/19 19:59:00;;;;;;;0.50;0.50;;;;;;;;;;7332189;19;162357;-13
2021/11/19 20:01:39;;;;;;;0.50;0.50;;;;;;;;;;7332174;19;153979;-13
2021/11/19 20:04:17;;;;;;;0.60;0.60;;;;;;;;;;7332412;19;153668;-13
2021/11/19 20:06:51;;;;;;;0.60;0.60;;;;;;;;;;7330072;19;162007;-14
2021/11/19 20:09:30;;;;;;;0.70;0.70;;;;;;;;;;7331997;19;162479;-13
2021/11/19 20:12:02;;;;;;;0.63;0.63;;;;;;;;;;7331957;19;153961;-13
2021/11/19 20:14:33;;;;;;;0.60;0.60;;;;;;;;;;7331883;19;153900;-11
2021/11/19 20:17:06;;;;;;;0.57;0.57;;;;;;;;;;7331476;19;161809;-15
2021/11/19 20:19:40;;;;;;;0.50;0.50;;;;;;;;;;7331128;19;162373;-13
2021/11/19 20:22:11;;;;;;;0.60;0.60;;;;;;;;;;7330599;19;153958;-14
2021/11/19 20:24:43;;;;;;;0.55;0.55;;;;;;;;;;7329257;19;153500;-12
2021/11/19 20:27:21;;;;;;;0.50;0.50;;;;;;;;;;7329337;19;161775;-12
2021/11/19 20:29:57;;;;;;;0.60;0.60;;;;;;;;;;7331002;19;162312;-14
2021/11/19 20:32:30;;;;;;;0.63;0.63;;;;;;;;;;7331286;19;154167;-12
2021/11/19 20:35:09;;;;;;;0.50;0.50;;;;;;;;;;7330922;19;153579;-12
2021/11/19 20:37:43;;;;;;;0.60;0.60;;;;;;;;;;7330508;19;161777;-12
2021/11/19 20:40:15;;;;;;;;;;;;;;;;;;7331229;19;162527;-12
2021/11/19 20:42:47;;;;;;;0.70;0.70;;;;;;;;;;7331114;19;154300;-12
2021/11/19 20:45:21;;;;;;;0.60;0.60;;;;;;;;;;7330950;19;153563;-13
2021/11/19 20:47:53;;;;;;;0.63;0.60;;;;;;;;;;7328493;19;161865;-13
2021/11/19 20:50:29;;;;;;;0.45;0.45;;;;;;;;;;7328943;19;162561;-13
2021/11/19 20:53:03;;;;;;;0.77;0.60;;;;;;;;;;7332248;19;153977;-13
2021/11/19 20:55:36;;;;;;;0.70;0.70;;;;;;;;;;7334027;19;153782;-13
2021/11/19 20:58:10;;;;;;;0.73;0.73;;;;;;;;;;7330724;19;162103;-13
2021/11/19 21:00:45;;;;;;;0.73;0.73;;;;;;;;;;7332931;19;162767;-12
2021/11/19 21:03:17;;;;;;;0.80;0.80;;;;;;;;;;7330408;19;153873;-14
2021/11/19 21:05:52;;;;;;;0.70;0.70;;;;;;;;;;7333184;19;153729;-15
2021/11/19 21:08:26;;;;;;;0.70;0.70;;;;;;;;;;7327641;19;162146;-13
2021/11/19 21:10:59;;;;;;;1.00;1.00;;;;;;;;;;7330072;19;162597;-14
2021/11/19 21:13:34;;;;;;;1.10;1.10;;;;;;;;;;7332125;19;154418;-13
2021/11/19 21:16:06;;;;;;;1.00;1.00;;;;;;;;;;7333414;19;153490;-15
2021/11/19 21:18:38;;;;;;;0.80;0.80;;;;;;;;;;7330880;19;161882;-16
2021/11/19 21:21:16;;;;;;;0.98;0.98;;;;;;;;;;7329600;19;162397;-12
2021/11/19 21:23:48;;;;;;;0.90;0.90;;;;;;;;;;7329519;19;154139;-12
2021/11/19 21:26:23;;;;;;;0.90;0.90;;;;;;;;;;7329588;19;153569;-13
2021/11/19 21:28:57;;;;;;;0.98;0.98;;;;;;;;;;7326448;19;162003;-13
2021/11/19 21:31:31;;;;;;;0.80;0.80;;;;;;;;;;7329184;19;162586;-14
2021/11/19 21:34:04;;;;;;;0.85;0.85;;;;;;;;;;7329609;19;154384;-17
2021/11/19 21:36:39;;;;;;;0.80;0.80;;;;;;;;;;7329046;19;153691;-14
2021/11/19 21:39:12;;;;;;;1.50;1.00;;;;;;;;;;7329072;19;161796;-14
2021/11/19 21:41:44;;;;;;;0.82;0.82;;;;;;;;;;7328874;19;162423;-14
2021/11/19 21:44:18;;;;;;;0.80;0.80;;;;;;;;;;7329370;19;154264;-13
2021/11/19 21:46:50;;;;;;;0.90;0.90;;;;;;;;;;7329032;19;153630;-14
2021/11/19 21:49:23;;;;;;;0.77;0.77;;;;;;;;;;7327711;19;162009;-14
2021/11/19 21:52:01;;;;;;;0.90;0.90;;;;;;;;;;7328902;19;162456;-14
2021/11/19 21:54:40;;;;;;;0.85;0.82;;;;;;;;;;7329127;19;153977;-15
2021/11/19 21:57:16;;;;;;;1.00;1.00;;;;;;;;;;7328925;19;153818;-15
2021/11/19 21:59:50;;;;;;;1.10;1.10;;;;;;;;;;7328510;19;162503;-14
2021/11/19 22:02:24;;;;;;;1.27;1.10;;;;;;;;;;7328354;19;162370;-14
2021/11/19 22:04:56;;;;;;;1.10;1.10;;;;;;;;;;7328513;19;153976;-14
2021/11/19 22:07:32;;;;;;;1.40;1.20;;;;;;;;;;7330027;19;153788;-13
2021/11/19 22:10:08;;;;;;;1.50;1.40;;;;;;;;;;7328235;19;161794;-14
2021/11/19 22:12:40;;;;;;;1.60;1.50;;;;;;;;;;7327894;19;162505;-14
2021/11/19 22:15:14;;;;;;;1.70;1.60;;;;;;;;;;7328101;19;154036;-14
2021/11/19 22:17:47;;;;;;;1.70;1.70;;;;;;;;;;7328239;19;153556;-13
2021/11/19 22:20:20;;;;;;;1.60;1.60;;;;;;;;;;7327499;19;161801;-16
2021/11/19 22:22:53;;;;;;;1.92;1.83;;;;;;;;;;7326832;19;162351;-15
2021/11/19 22:25:28;;;;;;;4.43;4.07;;;;;;;;;;7327720;19;154014;-13
2021/11/19 22:28:00;;;;;;;4.80;3.60;;;;;;;;;;7327299;19;153915;-13
2021/11/19 22:30:36;;;;;;;3.15;3.05;;;;;;;;;;7325812;19;162666;-13
2021/11/19 22:33:09;;;;;;;2.10;2.00;;;;;;;;;;7324924;19;162700;-13
2021/11/19 22:35:41;;;;;;;2.15;2.00;;;;;;;;;;7327978;19;154313;-13
2021/11/19 22:38:28;;;;;;;2.30;2.20;;;;;;;;;;7327809;19;153808;-14
2021/11/19 22:41:01;;;;;;;2.35;2.25;;;;;;;;;;7327249;19;161923;-14
2021/11/19 22:43:32;;;;;;;2.13;2.00;;;;;;;;;;7327187;19;162971;-14
2021/11/19 22:46:06;;;;;;;2.67;2.40;;;;;;;;;;7327405;19;153969;-14
2021/11/19 22:48:39;;;;;;;2.20;2.10;;;;;;;;;;7331943;19;153674;-14
2021/11/19 22:51:12;;;;;;;;;;;;;;;;;;7332355;19;162060;-13
2021/11/19 22:53:49;;;;;;;2.00;1.90;;;;;;;;;;7334292;19;162477;-15
2021/11/19 22:56:23;;;;;;;1.83;1.73;;;;;;;;;;7334248;19;153967;-13
2021/11/19 22:58:56;;;;;;;1.90;1.80;;;;;;;;;;7334094;19;153227;-14
2021/11/19 23:01:30;;;;;;;3.30;3.10;;;;;;;;;;7333775;19;161857;-13
2021/11/19 23:04:06;;;;;;;3.15;2.95;;;;;;;;;;7334448;19;162445;-13
2021/11/19 23:06:38;;;;;;;3.15;2.95;;;;;;;;;;7337580;19;154067;-13
2021/11/19 23:09:16;;;;;;;2.97;2.77;;;;;;;;;;7335630;19;153746;-15
2021/11/19 23:11:49;;;;;;;3.10;2.90;;;;;;;;;;7336419;19;161801;-13
2021/11/19 23:14:24;;;;;;;2.70;2.60;;;;;;;;;;7335032;19;162684;-14
2021/11/19 23:16:58;;;;;;;2.28;2.13;;;;;;;;;;7334257;19;153991;-12
2021/11/19 23:19:33;;;;;;;2.45;2.35;;;;;;;;;;7333951;19;154275;-14
2021/11/19 23:22:12;;;;;;;2.40;2.30;;;;;;;;;;7333691;19;161937;-13
2021/11/19 23:24:53;;;;;;;2.13;2.03;;;;;;;;;;7333604;19;162475;-13
2021/11/19 23:27:27;;;;;;;2.20;2.10;;;;;;;;;;7333930;19;153942;-14
2021/11/19 23:29:59;;;;;;;2.20;2.10;;;;;;;;;;7331658;19;153522;-13
2021/11/19 23:32:33;;;;;;;2.20;2.00;;;;;;;;;;7333155;19;162097;-13
2021/11/19 23:35:09;;;;;;;2.40;2.30;;;;;;;;;;7331890;19;163535;-13
2021/11/19 23:37:42;;;;;;;2.20;2.10;;;;;;;;;;7333559;19;154132;-13
2021/11/19 23:40:20;;;;;;;2.05;1.95;;;;;;;;;;7333491;19;153565;-13
2021/11/19 23:42:54;;;;;;;2.17;2.08;;;;;;;;;;7332981;19;161906;-13
2021/11/19 23:45:29;;;;;;;2.30;2.20;;;;;;;;;;7332005;19;162380;-14
2021/11/19 23:48:00;;;;;;;2.50;2.40;;;;;;;;;;7333131;19;153925;-14
2021/11/19 23:50:32;;;;;;;1.77;1.77;;;;;;;;;;7328992;19;153625;-14
2021/11/19 23:53:11;;;;;;;1.90;1.80;;;;;;;;;;7332670;19;162283;-12
2021/11/19 23:55:45;;;;;;;2.30;2.20;;;;;;;;;;7332462;19;162501;-12
2021/11/19 23:58:17;;;;;;;1.95;1.85;;;;;;;;;;7332752;19;153990;-12
